createdAt,value
2019-05-25T00:01:05.361Z,101730.72
2019-05-25T00:03:33.503Z,101731.55
2019-05-25T00:06:01.614Z,101731.12
2019-05-25T00:08:29.719Z,101731.07
2019-05-25T00:10:57.856Z,101737.61
2019-05-25T00:13:26.105Z,101736.30
2019-05-25T00:15:54.311Z,101739.36
2019-05-25T00:18:22.452Z,101742.44
2019-05-25T00:20:50.596Z,101737.17
2019-05-25T00:23:18.754Z,101738.48
2019-05-25T00:25:46.904Z,101735.42
2019-05-25T00:28:15.284Z,101729.27
2019-05-25T00:30:43.453Z,101733.62
2019-05-25T00:33:11.727Z,101730.55
2019-05-25T00:35:39.876Z,101728.78
2019-05-25T00:38:08.037Z,101730.94
2019-05-25T00:40:36.335Z,101727.91
2019-05-25T00:43:04.442Z,101727.47
2019-05-25T00:45:32.587Z,101726.16
2019-05-25T00:48:00.754Z,101724.80
2019-05-25T00:50:28.857Z,101719.10
2019-05-25T00:52:57.009Z,101725.28
2019-05-25T00:55:25.155Z,101727.91
2019-05-25T00:57:53.327Z,101729.63
2019-05-25T01:00:22.045Z,101732.27
2019-05-25T01:02:50.199Z,101729.23
2019-05-25T01:05:18.323Z,101730.94
2019-05-25T01:07:46.468Z,101726.55
2019-05-25T01:10:15.471Z,101735.77
2019-05-25T01:12:43.660Z,101735.77
2019-05-25T01:15:12.460Z,101730.50
2019-05-25T01:17:40.571Z,101726.95
2019-05-25T01:20:09.154Z,101728.26
2019-05-25T01:22:37.252Z,101724.31
2019-05-25T01:25:05.915Z,101729.14
2019-05-25T01:27:34.082Z,101724.71
2019-05-25T01:30:02.267Z,101726.45
2019-05-25T01:32:30.388Z,101739.61
2019-05-25T01:34:58.568Z,101732.12
2019-05-25T01:37:26.699Z,101732.99
2019-05-25T01:39:54.835Z,101731.67
2019-05-25T01:42:22.998Z,101732.55
2019-05-25T01:44:51.100Z,101734.27
2019-05-25T01:47:19.222Z,101732.94
2019-05-25T01:49:47.450Z,101738.20
2019-05-25T01:52:15.582Z,101737.75
2019-05-25T01:54:58.560Z,101738.16
2019-05-25T01:57:13.566Z,101736.41
2019-05-25T01:59:41.750Z,101735.08
2019-05-25T02:02:09.857Z,101735.08
2019-05-25T02:04:37.968Z,101739.85
2019-05-25T02:07:06.148Z,101744.68
2019-05-25T02:09:34.353Z,101746.43
2019-05-25T02:12:03.402Z,101741.61
2019-05-25T02:14:31.561Z,101743.31
2019-05-25T02:16:59.711Z,101743.31
2019-05-25T02:19:27.857Z,101746.82
2019-05-25T02:21:56.002Z,101745.06
2019-05-25T02:24:24.112Z,101747.70
2019-05-25T02:26:52.229Z,101748.13
2019-05-25T02:29:20.350Z,101748.08
2019-05-25T02:31:48.578Z,101748.95
2019-05-25T02:34:16.761Z,101752.02
2019-05-25T02:36:44.849Z,101746.31
2019-05-25T02:39:17.220Z,101750.22
2019-05-25T02:41:45.400Z,101757.23
2019-05-25T02:44:13.628Z,101761.17
2019-05-25T02:46:41.861Z,101754.16
2019-05-25T02:49:09.966Z,101756.78
2019-05-25T02:51:38.119Z,101750.61
2019-05-25T02:54:06.235Z,101755.86
2019-05-25T02:56:34.351Z,101758.48
2019-05-25T02:59:03.651Z,101757.17
2019-05-25T03:01:31.748Z,101757.12
2019-05-25T03:03:59.839Z,101757.12
2019-05-25T03:06:29.280Z,101766.77
2019-05-25T03:08:57.400Z,101763.25
2019-05-25T03:11:27.446Z,101767.64
2019-05-25T03:13:55.555Z,101763.25
2019-05-25T03:16:23.757Z,101762.80
2019-05-25T03:18:51.905Z,101764.12
2019-05-25T03:21:20.087Z,101763.64
2019-05-25T03:23:48.189Z,101763.63
2019-05-25T03:26:16.310Z,101771.52
2019-05-25T03:28:44.471Z,101758.38
2019-05-25T03:31:12.596Z,101761.48
2019-05-25T03:33:40.725Z,101759.30
2019-05-25T03:36:08.876Z,101764.57
2019-05-25T03:38:37.070Z,101759.75
2019-05-25T03:41:05.228Z,101760.23
2019-05-25T03:43:33.313Z,101760.23
2019-05-25T03:46:03.379Z,101764.19
2019-05-25T03:48:31.507Z,101761.11
2019-05-25T03:50:59.613Z,101760.67
2019-05-25T03:53:27.749Z,101764.13
2019-05-25T03:56:05.432Z,101768.51
2019-05-25T03:58:25.760Z,101770.69
2019-05-25T04:00:53.970Z,101778.15
2019-05-25T04:03:22.108Z,101778.10
2019-05-25T04:05:50.248Z,101781.65
2019-05-25T04:08:18.350Z,101785.55
2019-05-25T04:10:46.491Z,101785.53
2019-05-25T04:13:14.629Z,101785.48
2019-05-25T04:15:42.725Z,101788.12
2019-05-25T04:18:10.951Z,101787.69
2019-05-25T04:20:39.150Z,101796.00
2019-05-25T04:23:07.302Z,101801.66
2019-05-25T04:25:35.591Z,101798.54
2019-05-25T04:28:03.701Z,101790.53
2019-05-25T04:30:31.830Z,101801.42
2019-05-25T04:32:59.969Z,101790.00
2019-05-25T04:35:28.106Z,101797.84
2019-05-25T04:37:56.253Z,101802.71
2019-05-25T04:40:24.400Z,101801.83
2019-05-25T04:42:52.525Z,101809.73
2019-05-25T04:45:20.741Z,101817.10
2019-05-25T04:47:48.939Z,101812.28
2019-05-25T04:50:17.251Z,101811.78
2019-05-25T04:52:45.379Z,101809.14
2019-05-25T04:55:13.909Z,101816.16
2019-05-25T04:57:42.049Z,101819.99
2019-05-25T05:00:10.980Z,101818.60
2019-05-25T05:02:39.110Z,101825.16
2019-05-25T05:05:07.227Z,101818.97
2019-05-25T05:07:35.415Z,101824.20
2019-05-25T05:10:07.071Z,101823.20
2019-05-25T05:12:35.251Z,101818.81
2019-05-25T05:15:04.075Z,101820.56
2019-05-25T05:17:32.233Z,101816.19
2019-05-25T05:20:00.351Z,101816.25
2019-05-25T05:22:28.488Z,101814.13
2019-05-25T05:24:56.624Z,101820.25
2019-05-25T05:27:26.128Z,101817.66
2019-05-25T05:29:54.261Z,101822.08
2019-05-25T05:32:27.598Z,101830.41
2019-05-25T05:34:52.335Z,101824.77
2019-05-25T05:37:22.258Z,101824.79
2019-05-25T05:39:51.854Z,101826.56
2019-05-25T05:42:23.283Z,101820.97
2019-05-25T05:44:53.567Z,101820.56
2019-05-25T05:47:23.978Z,101816.29
2019-05-25T05:49:53.736Z,101821.20
2019-05-25T05:52:24.225Z,101821.31
2019-05-25T05:54:53.473Z,101826.69
2019-05-25T05:57:21.598Z,101824.62
2019-05-25T05:59:49.750Z,101827.81
2019-05-25T06:02:17.908Z,101834.50
2019-05-25T06:04:46.071Z,101832.38
2019-05-25T06:07:14.209Z,101828.52
2019-05-25T06:09:42.384Z,101830.34
2019-05-25T06:12:10.566Z,101831.27
2019-05-25T06:14:38.733Z,101835.27
2019-05-25T06:17:06.893Z,101837.48
2019-05-25T06:19:35.131Z,101840.16
2019-05-25T06:22:03.275Z,101839.72
2019-05-25T06:24:32.972Z,101844.55
2019-05-25T06:27:01.129Z,101846.19
2019-05-25T06:29:29.293Z,101859.67
2019-05-25T06:31:57.429Z,101853.03
2019-05-25T06:34:25.632Z,101855.55
2019-05-25T06:36:53.769Z,101848.89
2019-05-25T06:39:22.082Z,101851.02
2019-05-25T06:41:50.232Z,101854.91
2019-05-25T06:44:18.426Z,101852.23
2019-05-25T06:46:46.547Z,101856.23
2019-05-25T06:49:14.673Z,101855.85
2019-05-25T06:51:42.848Z,101853.27
2019-05-25T06:54:11.750Z,101852.91
2019-05-25T06:56:39.850Z,101851.17
2019-05-25T06:59:07.974Z,101853.45
2019-05-25T07:01:36.097Z,101856.15
2019-05-25T07:04:04.313Z,101852.66
2019-05-25T07:06:32.526Z,101854.08
2019-05-25T07:09:00.635Z,101857.22
2019-05-25T07:11:28.791Z,101862.14
2019-05-25T07:13:56.959Z,101863.95
2019-05-25T07:16:25.081Z,101856.50
2019-05-25T07:18:53.229Z,101859.14
2019-05-25T07:21:21.372Z,101858.30
2019-05-25T07:23:49.528Z,101863.58
2019-05-25T07:26:17.674Z,101864.89
2019-05-25T07:28:45.824Z,101866.20
2019-05-25T07:31:13.962Z,101865.72
2019-05-25T07:33:42.059Z,101870.10
2019-05-25T07:36:10.297Z,101872.73
2019-05-25T07:38:38.434Z,101874.05
2019-05-25T07:41:06.549Z,101877.55
2019-05-25T07:43:34.668Z,101873.17
2019-05-25T07:46:02.782Z,101878.48
2019-05-25T07:48:30.908Z,101876.34
2019-05-25T07:50:59.033Z,101876.40
2019-05-25T07:53:27.244Z,101882.64
2019-05-25T07:55:55.386Z,101877.42
2019-05-25T07:58:23.547Z,101883.19
2019-05-25T08:00:51.822Z,101879.73
2019-05-25T08:03:19.977Z,101889.56
2019-05-25T08:05:48.280Z,101876.09
2019-05-25T08:08:16.488Z,101885.03
2019-05-25T08:10:44.778Z,101882.03
2019-05-25T08:13:12.948Z,101888.66
2019-05-25T08:15:41.509Z,101886.91
2019-05-25T08:18:09.652Z,101890.46
2019-05-25T08:20:37.814Z,101888.30
2019-05-25T08:23:06.022Z,101890.50
2019-05-25T08:25:34.238Z,101896.17
2019-05-25T08:28:02.388Z,101895.25
2019-05-25T08:30:30.543Z,101900.02
2019-05-25T08:32:58.721Z,101906.56
2019-05-25T08:35:26.849Z,101906.55
2019-05-25T08:37:54.976Z,101913.14
2019-05-25T08:40:23.352Z,101908.31
2019-05-25T08:42:51.499Z,101913.67
2019-05-25T08:45:19.597Z,101906.76
2019-05-25T08:47:47.757Z,101909.09
2019-05-25T08:50:15.881Z,101912.31
2019-05-25T08:52:44.005Z,101913.31
2019-05-25T08:55:12.569Z,101910.78
2019-05-25T08:57:40.708Z,101924.05
2019-05-25T09:00:09.252Z,101924.49
2019-05-25T09:02:37.414Z,101924.93
2019-05-25T09:05:05.873Z,101923.97
2019-05-25T09:07:34.013Z,101928.77
2019-05-25T09:10:02.126Z,101929.95
2019-05-25T09:12:30.280Z,101939.57
2019-05-25T09:14:58.468Z,101942.06
2019-05-25T09:17:26.613Z,101936.64
2019-05-25T09:19:54.723Z,101939.63
2019-05-25T09:22:22.937Z,101931.64
2019-05-25T09:24:53.811Z,101935.07
2019-05-25T09:27:21.914Z,101940.33
2019-05-25T09:29:50.067Z,101937.70
2019-05-25T09:32:18.154Z,101935.95
2019-05-25T09:34:46.297Z,101925.00
2019-05-25T09:37:14.391Z,101918.46
2019-05-25T09:39:42.575Z,101918.98
2019-05-25T09:42:10.692Z,101922.14
2019-05-25T09:44:38.823Z,101923.09
2019-05-25T09:47:06.940Z,101921.41
2019-05-25T09:49:35.063Z,101920.63
2019-05-25T09:52:03.165Z,101907.97
2019-05-25T09:54:31.565Z,101909.34
2019-05-25T09:56:59.800Z,101914.27
2019-05-25T09:59:27.925Z,101913.90
2019-05-25T10:01:56.127Z,101915.27
2019-05-25T10:04:24.266Z,101910.94
2019-05-25T10:06:52.409Z,101907.03
2019-05-25T10:09:20.588Z,101905.69
2019-05-25T10:11:48.882Z,101905.72
2019-05-25T10:14:17.034Z,101908.35
2019-05-25T10:16:45.193Z,101906.59
2019-05-25T10:19:13.327Z,101907.48
2019-05-25T10:21:41.506Z,101903.52
2019-05-25T10:24:09.721Z,101907.92
2019-05-25T10:26:38.564Z,101902.64
2019-05-25T10:29:06.678Z,101903.54
2019-05-25T10:31:35.140Z,101898.70
2019-05-25T10:34:03.817Z,101904.02
2019-05-25T10:36:31.947Z,101899.18
2019-05-25T10:39:00.090Z,101898.77
2019-05-25T10:41:28.259Z,101900.53
2019-05-25T10:43:56.459Z,101901.91
2019-05-25T10:46:24.706Z,101899.28
2019-05-25T10:48:52.832Z,101898.41
2019-05-25T10:51:20.943Z,101890.91
2019-05-25T10:53:49.144Z,101897.50
2019-05-25T10:56:17.289Z,101900.14
2019-05-25T10:58:45.412Z,101897.03
2019-05-25T11:01:13.584Z,101899.17
2019-05-25T11:03:41.745Z,101903.53
2019-05-25T11:06:09.869Z,101903.99
2019-05-25T11:08:37.979Z,101901.69
2019-05-25T11:11:06.137Z,101898.09
2019-05-25T11:13:34.257Z,101888.02
2019-05-25T11:16:02.373Z,101886.89
2019-05-25T11:18:30.575Z,101891.69
2019-05-25T11:20:58.737Z,101894.58
2019-05-25T11:23:26.870Z,101889.62
2019-05-25T11:25:55.031Z,101892.67
2019-05-25T11:28:23.176Z,101895.52
2019-05-25T11:30:51.331Z,101895.14
2019-05-25T11:33:19.607Z,101899.98
2019-05-25T11:35:47.730Z,101888.81
2019-05-25T11:38:15.971Z,101896.27
2019-05-25T11:40:44.119Z,101898.61
2019-05-25T11:43:12.275Z,101895.75
2019-05-25T11:45:40.410Z,101895.99
2019-05-25T11:48:08.601Z,101893.86
2019-05-25T11:50:36.776Z,101890.83
2019-05-25T11:53:05.993Z,101891.54
2019-05-25T11:55:34.390Z,101882.02
2019-05-25T11:58:05.159Z,101881.86
2019-05-25T12:00:34.094Z,101881.86
2019-05-25T12:03:03.832Z,101885.89
2019-05-25T12:05:32.053Z,101886.38
2019-05-25T12:08:00.194Z,101887.00
2019-05-25T12:10:28.330Z,101894.63
2019-05-25T12:12:56.489Z,101887.02
2019-05-25T12:15:24.665Z,101894.20
2019-05-25T12:17:52.813Z,101884.03
2019-05-25T12:20:21.665Z,101886.83
2019-05-25T12:22:49.785Z,101877.97
2019-05-25T12:25:18.563Z,101871.28
2019-05-25T12:27:49.394Z,101881.48
2019-05-25T12:30:18.257Z,101878.02
2019-05-25T12:32:46.440Z,101874.54
2019-05-25T12:35:16.066Z,101875.40
2019-05-25T12:37:44.315Z,101885.80
2019-05-25T12:40:12.961Z,101887.82
2019-05-25T12:42:41.137Z,101889.81
2019-05-25T12:45:09.549Z,101886.84
2019-05-25T12:47:37.736Z,101896.56
2019-05-25T12:50:07.117Z,101894.19
2019-05-25T12:52:35.339Z,101897.50
2019-05-25T12:55:03.845Z,101888.20
2019-05-25T12:57:32.007Z,101910.20
2019-05-25T13:00:14.297Z,101903.28
2019-05-25T13:02:30.023Z,101901.56
2019-05-25T13:04:58.161Z,101905.27
2019-05-25T13:07:26.286Z,101911.92
2019-05-25T13:09:54.451Z,101907.80
2019-05-25T13:12:22.619Z,101911.88
2019-05-25T13:14:50.827Z,101905.89
2019-05-25T13:17:19.031Z,101914.02
2019-05-25T13:19:47.526Z,101911.88
2019-05-25T13:22:15.798Z,101907.53
2019-05-25T13:24:43.922Z,101907.73
2019-05-25T13:27:12.119Z,101908.66
2019-05-25T13:29:40.320Z,101911.27
2019-05-25T13:32:08.727Z,101907.64
2019-05-25T13:34:36.844Z,101906.77
2019-05-25T13:37:05.089Z,101905.47
2019-05-25T13:39:33.210Z,101903.20
2019-05-25T13:42:02.951Z,101900.12
2019-05-25T13:44:31.063Z,101904.59
2019-05-25T13:46:59.255Z,101901.55
2019-05-25T13:49:27.360Z,101894.41
2019-05-25T13:51:55.506Z,101896.53
2019-05-25T13:54:23.676Z,101903.48
2019-05-25T13:56:51.869Z,101898.08
2019-05-25T13:59:20.003Z,101891.81
2019-05-25T14:01:48.109Z,101905.47
2019-05-25T14:04:16.231Z,101899.27
2019-05-25T14:06:44.324Z,101903.23
2019-05-25T14:09:15.622Z,101905.47
2019-05-25T14:11:42.312Z,101910.36
2019-05-25T14:14:10.414Z,101909.97
2019-05-25T14:16:38.546Z,101914.90
2019-05-25T14:19:06.671Z,101913.27
2019-05-25T14:21:34.797Z,101912.00
2019-05-25T14:24:02.941Z,101908.02
2019-05-25T14:26:31.044Z,101910.73
2019-05-25T14:28:59.235Z,101907.65
2019-05-25T14:31:44.104Z,101903.18
2019-05-25T14:33:57.231Z,101908.49
2019-05-25T14:36:25.382Z,101899.28
2019-05-25T14:38:53.557Z,101890.43
2019-05-25T14:41:21.694Z,101890.04
2019-05-25T14:43:49.910Z,101888.25
2019-05-25T14:46:27.342Z,101891.30
2019-05-25T14:48:47.859Z,101894.81
2019-05-25T14:51:16.011Z,101889.05
2019-05-25T14:53:44.165Z,101884.27
2019-05-25T14:56:12.309Z,101886.61
2019-05-25T14:58:40.504Z,101882.72
2019-05-25T15:01:09.256Z,101879.64
2019-05-25T15:03:37.424Z,101877.00
2019-05-25T15:06:05.500Z,101872.56
2019-05-25T15:08:35.773Z,101875.25
2019-05-25T15:11:03.896Z,101875.25
2019-05-25T15:13:32.048Z,101872.97
2019-05-25T15:16:00.257Z,101878.25
2019-05-25T15:18:28.440Z,101877.74
2019-05-25T15:20:56.930Z,101873.22
2019-05-25T15:23:25.121Z,101872.61
2019-05-25T15:25:53.295Z,101870.22
2019-05-25T15:28:21.429Z,101864.64
2019-05-25T15:30:49.538Z,101862.88
2019-05-25T15:33:17.720Z,101862.55
2019-05-25T15:35:45.870Z,101864.46
2019-05-25T15:38:14.030Z,101852.10
2019-05-25T15:40:42.185Z,101859.69
2019-05-25T15:43:10.446Z,101851.42
2019-05-25T15:45:38.595Z,101846.78
2019-05-25T15:48:06.749Z,101839.91
2019-05-25T15:50:34.969Z,101841.80
2019-05-25T15:53:04.319Z,101838.27
2019-05-25T15:55:32.495Z,101836.87
2019-05-25T15:58:00.629Z,101831.09
2019-05-25T16:00:53.900Z,101830.94
2019-05-25T16:03:22.112Z,101833.92
2019-05-25T16:05:50.203Z,101830.20
2019-05-25T16:08:19.420Z,101831.88
2019-05-25T16:10:47.628Z,101827.93
2019-05-25T16:13:15.880Z,101823.80
2019-05-25T16:15:44.023Z,101820.27
2019-05-25T16:18:12.287Z,101824.38
2019-05-25T16:20:40.422Z,101813.02
2019-05-25T16:23:09.423Z,101819.87
2019-05-25T16:25:37.565Z,101817.64
2019-05-25T16:28:05.695Z,101816.11
2019-05-25T16:30:33.852Z,101805.44
2019-05-25T16:33:17.327Z,101812.16
2019-05-25T16:35:31.993Z,101800.73
2019-05-25T16:38:00.448Z,101806.88
2019-05-25T16:40:28.955Z,101805.38
2019-05-25T16:42:57.078Z,101805.38
2019-05-25T16:45:25.219Z,101814.02
2019-05-25T16:47:53.411Z,101810.92
2019-05-25T16:50:21.611Z,101807.76
2019-05-25T16:52:49.901Z,101814.22
2019-05-25T16:55:18.008Z,101803.43
2019-05-25T16:57:46.201Z,101807.36
2019-05-25T17:00:17.372Z,101814.45
2019-05-25T17:02:45.505Z,101808.25
2019-05-25T17:05:13.866Z,101809.52
2019-05-25T17:07:41.999Z,101811.18
2019-05-25T17:10:10.287Z,101818.49
2019-05-25T17:12:38.445Z,101818.34
2019-05-25T17:15:06.815Z,101811.11
2019-05-25T17:17:34.969Z,101810.02
2019-05-25T17:20:03.558Z,101816.48
2019-05-25T17:22:31.724Z,101814.91
2019-05-25T17:24:59.927Z,101814.64
2019-05-25T17:27:28.079Z,101819.72
2019-05-25T17:29:56.272Z,101821.20
2019-05-25T17:32:24.397Z,101822.72
2019-05-25T17:34:52.613Z,101817.91
2019-05-25T17:37:20.773Z,101823.36
2019-05-25T17:39:48.878Z,101826.61
2019-05-25T17:42:17.057Z,101816.55
2019-05-25T17:44:45.219Z,101818.39
2019-05-25T17:47:13.350Z,101820.66
2019-05-25T17:49:41.528Z,101818.05
2019-05-25T17:52:09.685Z,101819.45
2019-05-25T17:54:37.968Z,101817.77
2019-05-25T17:57:06.150Z,101831.90
2019-05-25T17:59:34.410Z,101831.05
2019-05-25T18:02:02.603Z,101830.20
2019-05-25T18:04:30.761Z,101829.33
2019-05-25T18:06:58.962Z,101827.17
2019-05-25T18:09:27.113Z,101824.11
2019-05-25T18:11:55.260Z,101817.97
2019-05-25T18:14:23.431Z,101815.34
2019-05-25T18:16:51.611Z,101821.09
2019-05-25T18:19:19.755Z,101821.11
2019-05-25T18:21:47.877Z,101824.67
2019-05-25T18:24:16.160Z,101821.59
2019-05-25T18:26:44.446Z,101821.59
2019-05-25T18:29:12.605Z,101824.25
2019-05-25T18:31:40.772Z,101820.77
2019-05-25T18:34:21.689Z,101814.17
2019-05-25T18:36:38.748Z,101809.75
2019-05-25T18:39:07.238Z,101805.37
2019-05-25T18:41:35.409Z,101808.91
2019-05-25T18:44:03.556Z,101808.47
2019-05-25T18:46:31.752Z,101806.25
2019-05-25T18:48:59.886Z,101808.89
2019-05-25T18:51:28.123Z,101810.66
2019-05-25T18:53:56.292Z,101808.03
2019-05-25T18:56:24.463Z,101808.94
2019-05-25T18:58:52.568Z,101806.27
2019-05-25T19:01:20.699Z,101803.19
2019-05-25T19:03:48.886Z,101804.51
2019-05-25T19:06:17.039Z,101805.39
2019-05-25T19:08:45.279Z,101800.55
2019-05-25T19:11:13.510Z,101801.44
2019-05-25T19:13:41.716Z,101802.75
2019-05-25T19:16:10.141Z,101804.95
2019-05-25T19:18:38.350Z,101803.19
2019-05-25T19:21:06.519Z,101807.15
2019-05-25T19:23:34.689Z,101805.38
2019-05-25T19:26:03.151Z,101808.45
2019-05-25T19:28:31.301Z,101802.29
2019-05-25T19:30:59.487Z,101802.72
2019-05-25T19:33:28.361Z,101807.13
2019-05-25T19:35:56.559Z,101807.10
2019-05-25T19:38:24.700Z,101808.41
2019-05-25T19:40:52.837Z,101804.00
2019-05-25T19:43:20.988Z,101802.66
2019-05-25T19:45:49.307Z,101806.13
2019-05-25T19:48:17.431Z,101805.67
2019-05-25T19:50:45.924Z,101810.06
2019-05-25T19:53:14.074Z,101806.09
2019-05-25T19:55:42.238Z,101805.19
2019-05-25T19:58:10.362Z,101806.05
2019-05-25T20:00:38.667Z,101806.92
2019-05-25T20:03:06.777Z,101806.91
2019-05-25T20:05:34.911Z,101804.66
2019-05-25T20:08:03.673Z,101802.44
2019-05-25T20:10:31.797Z,101812.52
2019-05-25T20:12:59.930Z,101804.59
2019-05-25T20:15:28.033Z,101806.73
2019-05-25T20:17:56.223Z,101807.16
2019-05-25T20:20:24.391Z,101807.09
2019-05-25T20:22:52.510Z,101797.84
2019-05-25T20:25:20.663Z,101798.69
2019-05-25T20:27:48.792Z,101791.62
2019-05-25T20:30:17.061Z,101795.99
2019-05-25T20:32:45.196Z,101791.12
2019-05-25T20:35:13.575Z,101787.58
2019-05-25T20:37:41.730Z,101786.67
2019-05-25T20:40:10.320Z,101787.48
2019-05-25T20:42:38.695Z,101788.33
2019-05-25T20:45:07.601Z,101787.38
2019-05-25T20:47:35.729Z,101793.48
2019-05-25T20:50:05.691Z,101788.19
2019-05-25T20:52:33.828Z,101786.39
2019-05-25T20:55:01.941Z,101783.28
2019-05-25T20:57:30.113Z,101792.45
2019-05-25T20:59:58.338Z,101787.15
2019-05-25T21:02:26.506Z,101786.70
2019-05-25T21:04:54.682Z,101781.83
2019-05-25T21:07:22.790Z,101788.38
2019-05-25T21:09:50.917Z,101787.45
2019-05-25T21:12:19.137Z,101786.09
2019-05-25T21:14:47.252Z,101785.62
2019-05-25T21:17:15.911Z,101779.47
2019-05-25T21:19:44.038Z,101777.67
2019-05-25T21:22:12.193Z,101766.27
2019-05-25T21:24:40.346Z,101766.66
2019-05-25T21:27:08.475Z,101768.84
2019-05-25T21:29:36.664Z,101768.37
2019-05-25T21:32:04.968Z,101766.13
2019-05-25T21:34:33.105Z,101769.59
2019-05-25T21:37:04.408Z,101773.92
2019-05-25T21:39:34.788Z,101768.66
2019-05-25T21:42:02.927Z,101768.16
2019-05-25T21:44:31.051Z,101761.10
2019-05-25T21:46:59.277Z,101760.17
2019-05-25T21:49:27.405Z,101764.52
2019-05-25T21:51:55.545Z,101765.37
2019-05-25T21:54:23.731Z,101759.20
2019-05-25T21:56:51.901Z,101759.15
2019-05-25T21:59:20.035Z,101756.46
2019-05-25T22:01:48.295Z,101752.52
2019-05-25T22:04:16.462Z,101750.70
2019-05-25T22:06:44.709Z,101750.66
2019-05-25T22:09:12.826Z,101744.03
2019-05-25T22:11:40.939Z,101750.55
2019-05-25T22:14:09.094Z,101744.83
2019-05-25T22:16:37.229Z,101741.71
2019-05-25T22:19:05.365Z,101736.80
2019-05-25T22:21:33.738Z,101735.43
2019-05-25T22:24:01.847Z,101726.61
2019-05-25T22:26:30.010Z,101731.82
2019-05-25T22:28:58.243Z,101725.63
2019-05-25T22:31:26.368Z,101725.56
2019-05-25T22:33:54.512Z,101732.52
2019-05-25T22:36:22.635Z,101728.52
2019-05-25T22:38:50.773Z,101727.13
2019-05-25T22:41:19.963Z,101723.17
2019-05-25T22:43:48.322Z,101714.80
2019-05-25T22:46:16.433Z,101715.19
2019-05-25T22:48:44.575Z,101709.03
2019-05-25T22:51:12.705Z,101701.96
2019-05-25T22:53:40.866Z,101701.47
2019-05-25T22:56:08.995Z,101697.52
2019-05-25T22:58:37.162Z,101699.22
2019-05-25T23:01:05.356Z,101697.91
2019-05-25T23:03:33.579Z,101691.72
2019-05-25T23:06:01.705Z,101685.14
2019-05-25T23:08:29.864Z,101681.20
2019-05-25T23:10:57.977Z,101679.45
2019-05-25T23:13:26.087Z,101680.31
2019-05-25T23:15:54.273Z,101679.84
2019-05-25T23:18:22.440Z,101676.77
2019-05-25T23:20:50.600Z,101682.45
2019-05-25T23:23:18.724Z,101677.14
2019-05-25T23:25:46.888Z,101670.55
2019-05-25T23:28:15.025Z,101667.87
2019-05-25T23:30:43.145Z,101667.86
2019-05-25T23:33:11.430Z,101661.69
2019-05-25T23:35:39.599Z,101664.30
2019-05-25T23:38:07.743Z,101658.17
2019-05-25T23:40:35.907Z,101655.48
2019-05-25T23:43:04.046Z,101647.17
2019-05-25T23:45:32.160Z,101643.23
2019-05-25T23:48:00.331Z,101639.72
2019-05-25T23:50:28.431Z,101628.35
2019-05-25T23:52:56.581Z,101620.04
2019-05-25T23:55:24.730Z,101616.59
2019-05-25T23:57:53.684Z,101607.41
